createdAt,value
2023-03-30T00:00:57.345Z,9.80
2023-03-30T00:03:27.441Z,9.90
2023-03-30T00:05:57.368Z,9.90
2023-03-30T00:08:28.297Z,9.90
2023-03-30T00:11:01.721Z,9.90
2023-03-30T00:13:31.036Z,10.00
2023-03-30T00:15:58.962Z,10.00
2023-03-30T00:18:52.356Z,10.10
2023-03-30T00:21:30.920Z,10.10
2023-03-30T00:24:09.152Z,10.10
2023-03-30T00:26:49.424Z,10.10
2023-03-30T00:29:33.772Z,10.10
2023-03-30T00:32:29.831Z,10.20
2023-03-30T00:35:14.046Z,10.20
2023-03-30T00:38:08.441Z,10.30
2023-03-30T00:41:16.080Z,10.30
2023-03-30T00:44:16.272Z,10.30
2023-03-30T00:47:02.179Z,10.30
2023-03-30T00:53:41.676Z,10.30
2023-03-30T00:56:35.383Z,10.30
2023-03-30T00:59:46.436Z,10.30
2023-03-30T01:02:59.150Z,10.40
2023-03-30T01:05:49.401Z,10.50
2023-03-30T01:08:20.146Z,10.50
2023-03-30T01:11:50.774Z,10.50
2023-03-30T01:14:48.212Z,10.60
2023-03-30T01:17:25.701Z,10.80
2023-03-30T01:20:30.626Z,10.90
2023-03-30T01:23:14.293Z,10.90
2023-03-30T01:26:27.193Z,10.90
2023-03-30T01:29:14.965Z,10.90
2023-03-30T01:32:18.531Z,10.90
2023-03-30T01:35:15.760Z,10.90
2023-03-30T01:38:28.850Z,10.90
2023-03-30T01:41:11.916Z,10.90
2023-03-30T01:43:47.388Z,11.00
2023-03-30T01:46:25.474Z,11.00
2023-03-30T01:49:02.755Z,11.00
2023-03-30T01:51:35.763Z,11.00
2023-03-30T01:54:08.987Z,11.00
2023-03-30T01:56:48.328Z,11.10
2023-03-30T01:59:21.703Z,11.10
2023-03-30T02:01:54.115Z,11.00
2023-03-30T02:04:55.097Z,11.10
2023-03-30T02:07:47.534Z,11.10
2023-03-30T02:10:45.257Z,11.10
2023-03-30T02:13:22.448Z,11.10
2023-03-30T02:15:57.164Z,11.10
2023-03-30T02:18:25.621Z,11.20
2023-03-30T02:20:54.088Z,11.20
2023-03-30T02:23:24.100Z,11.20
2023-03-30T02:25:54.416Z,11.20
2023-03-30T02:28:23.773Z,11.20
2023-03-30T02:30:52.008Z,11.20
2023-03-30T02:33:26.593Z,11.20
2023-03-30T02:36:14.643Z,11.20
2023-03-30T02:39:14.534Z,11.20
2023-03-30T02:42:21.542Z,11.30
2023-03-30T02:45:03.681Z,11.20
2023-03-30T02:47:43.227Z,11.20
2023-03-30T02:50:18.745Z,11.20
2023-03-30T02:52:56.362Z,11.20
2023-03-30T02:55:35.552Z,11.20
2023-03-30T02:58:40.640Z,11.20
2023-03-30T03:01:20.904Z,11.20
2023-03-30T03:03:59.758Z,11.20
2023-03-30T03:06:33.191Z,11.20
2023-03-30T03:09:01.681Z,11.20
2023-03-30T03:11:32.647Z,11.20
2023-03-30T03:14:01.250Z,11.20
2023-03-30T03:16:32.699Z,11.20
2023-03-30T03:19:19.805Z,11.20
2023-03-30T03:21:50.504Z,11.20
2023-03-30T03:24:18.995Z,11.10
2023-03-30T03:27:05.185Z,11.10
2023-03-30T03:29:43.755Z,11.00
2023-03-30T03:32:13.097Z,11.10
2023-03-30T03:34:45.812Z,11.10
2023-03-30T03:37:14.871Z,11.00
2023-03-30T03:39:44.492Z,11.00
2023-03-30T03:42:14.138Z,11.00
2023-03-30T03:44:50.876Z,10.90
2023-03-30T03:47:20.342Z,10.90
2023-03-30T03:49:48.494Z,10.90
2023-03-30T03:52:16.459Z,10.80
2023-03-30T03:54:44.431Z,10.80
2023-03-30T03:57:12.605Z,10.80
2023-03-30T03:59:40.953Z,10.80
2023-03-30T04:02:09.001Z,10.80
2023-03-30T04:04:39.518Z,10.80
2023-03-30T04:07:07.754Z,10.70
2023-03-30T04:09:35.759Z,10.70
2023-03-30T04:12:18.226Z,10.70
2023-03-30T04:15:15.866Z,10.70
2023-03-30T04:17:58.799Z,10.70
2023-03-30T04:20:48.094Z,10.70
2023-03-30T04:23:37.896Z,10.70
2023-03-30T04:26:24.409Z,10.60
2023-03-30T04:29:01.113Z,10.60
2023-03-30T04:32:04.363Z,10.60
2023-03-30T04:34:54.696Z,10.60
2023-03-30T04:37:30.229Z,10.60
2023-03-30T04:40:21.276Z,10.60
2023-03-30T04:42:52.149Z,10.60
2023-03-30T04:45:39.176Z,10.70
2023-03-30T04:48:26.414Z,10.70
2023-03-30T04:51:13.107Z,10.70
2023-03-30T04:54:02.307Z,10.80
2023-03-30T04:56:48.876Z,10.80
2023-03-30T04:59:37.107Z,10.90
2023-03-30T05:02:23.805Z,11.00
2023-03-30T05:05:15.603Z,11.00
2023-03-30T05:08:06.794Z,11.10
2023-03-30T05:10:49.860Z,11.10
2023-03-30T05:13:47.269Z,11.20
2023-03-30T05:16:37.024Z,11.30
2023-03-30T05:19:13.644Z,11.40
2023-03-30T05:21:44.508Z,11.40
2023-03-30T05:24:38.807Z,11.50
2023-03-30T05:27:08.033Z,11.50
2023-03-30T05:29:44.659Z,11.60
2023-03-30T05:32:31.036Z,11.70
2023-03-30T05:35:25.071Z,11.70
2023-03-30T05:38:05.367Z,11.80
2023-03-30T05:40:52.299Z,11.80
2023-03-30T05:43:41.054Z,11.80
2023-03-30T05:46:24.027Z,11.80
2023-03-30T05:48:51.967Z,11.90
2023-03-30T05:51:27.256Z,11.90
2023-03-30T05:54:13.953Z,11.90
2023-03-30T05:57:01.478Z,11.80
2023-03-30T05:59:34.222Z,11.80
2023-03-30T06:02:22.542Z,11.90
2023-03-30T06:04:52.428Z,11.80
2023-03-30T06:07:21.261Z,11.80
2023-03-30T06:09:50.779Z,11.80
2023-03-30T06:12:24.919Z,11.80
2023-03-30T06:14:54.209Z,11.90
2023-03-30T06:17:31.542Z,11.80
2023-03-30T06:19:59.997Z,11.80
2023-03-30T06:22:31.402Z,11.80
2023-03-30T06:25:05.942Z,11.80
2023-03-30T06:27:33.984Z,11.80
2023-03-30T06:30:03.729Z,11.80
2023-03-30T06:32:32.016Z,11.80
2023-03-30T06:35:18.990Z,11.90
2023-03-30T06:37:47.118Z,11.80
2023-03-30T06:40:16.061Z,11.80
2023-03-30T06:42:47.995Z,11.80
2023-03-30T06:45:29.767Z,11.80
2023-03-30T06:47:57.819Z,11.80
2023-03-30T06:50:26.204Z,11.80
2023-03-30T06:53:02.259Z,11.90
2023-03-30T06:55:37.308Z,11.90
2023-03-30T06:58:05.471Z,11.90
2023-03-30T07:00:34.974Z,12.00
2023-03-30T07:03:21.742Z,12.10
2023-03-30T07:06:08.840Z,12.10
2023-03-30T07:08:40.395Z,12.30
2023-03-30T07:11:11.210Z,12.50
2023-03-30T07:13:41.294Z,12.60
2023-03-30T07:16:11.800Z,12.70
2023-03-30T07:18:40.125Z,12.70
2023-03-30T07:21:08.474Z,12.70
2023-03-30T07:23:42.017Z,12.80
2023-03-30T07:26:12.582Z,12.80
2023-03-30T07:28:52.053Z,12.80
2023-03-30T07:31:24.429Z,12.80
2023-03-30T07:33:52.919Z,12.90
2023-03-30T07:36:25.315Z,12.90
2023-03-30T07:38:53.963Z,13.00
2023-03-30T07:41:22.552Z,13.10
2023-03-30T07:43:54.573Z,13.20
2023-03-30T07:46:24.136Z,13.20
2023-03-30T07:48:55.529Z,13.30
2023-03-30T07:51:25.310Z,13.40
2023-03-30T07:54:04.930Z,13.30
2023-03-30T07:56:52.628Z,13.30
2023-03-30T07:59:21.939Z,13.30
2023-03-30T08:01:54.551Z,13.30
2023-03-30T08:04:39.661Z,13.20
2023-03-30T08:07:07.967Z,13.20
2023-03-30T08:09:36.102Z,13.20
2023-03-30T08:12:04.895Z,13.20
2023-03-30T08:14:32.946Z,13.20
2023-03-30T08:17:02.427Z,13.20
2023-03-30T08:19:30.417Z,13.20
2023-03-30T08:21:58.445Z,13.10
2023-03-30T08:24:26.643Z,13.00
2023-03-30T08:26:54.745Z,12.90
2023-03-30T08:29:23.134Z,12.80
2023-03-30T08:31:52.182Z,12.70
2023-03-30T08:34:21.631Z,12.50
2023-03-30T08:36:49.627Z,12.40
2023-03-30T08:39:17.705Z,12.30
2023-03-30T08:42:20.929Z,12.20
2023-03-30T08:44:53.776Z,12.10
2023-03-30T08:47:30.871Z,11.90
2023-03-30T08:50:08.574Z,11.80
2023-03-30T08:52:37.975Z,11.70
2023-03-30T08:55:07.134Z,11.60
2023-03-30T08:57:47.195Z,11.50
2023-03-30T09:00:25.206Z,11.30
2023-03-30T09:03:00.396Z,11.10
2023-03-30T09:05:32.237Z,11.00
2023-03-30T09:08:06.241Z,10.90
2023-03-30T09:10:40.395Z,10.80
2023-03-30T09:13:12.546Z,10.70
2023-03-30T09:15:44.614Z,10.70
2023-03-30T09:18:19.507Z,10.60
2023-03-30T09:20:51.814Z,10.50
2023-03-30T09:23:19.933Z,10.50
2023-03-30T09:25:55.140Z,10.40
2023-03-30T09:28:28.256Z,10.40
2023-03-30T09:31:02.661Z,10.40
2023-03-30T09:33:43.230Z,10.40
2023-03-30T09:36:16.846Z,10.40
2023-03-30T09:38:45.847Z,10.40
2023-03-30T09:41:29.941Z,10.30
2023-03-30T09:43:59.107Z,10.30
2023-03-30T09:46:27.212Z,10.30
2023-03-30T09:48:55.646Z,10.40
2023-03-30T09:51:27.920Z,10.40
2023-03-30T09:54:02.101Z,10.40
2023-03-30T09:56:37.479Z,10.50
2023-03-30T09:59:21.978Z,10.60
2023-03-30T10:01:50.039Z,10.60
2023-03-30T10:04:19.005Z,10.60
2023-03-30T10:06:50.362Z,10.60
2023-03-30T10:09:22.382Z,10.50
2023-03-30T10:11:52.327Z,10.50
2023-03-30T10:14:33.114Z,10.50
2023-03-30T10:17:01.803Z,10.50
2023-03-30T10:19:31.214Z,10.50
2023-03-30T10:22:04.223Z,10.60
2023-03-30T10:24:34.182Z,10.50
2023-03-30T10:27:10.930Z,10.60
2023-03-30T10:29:45.474Z,10.60
2023-03-30T10:32:19.187Z,10.70
2023-03-30T10:34:50.047Z,10.80
2023-03-30T10:37:23.720Z,10.90
2023-03-30T10:39:53.530Z,10.90
2023-03-30T10:42:24.827Z,11.00
2023-03-30T10:44:55.624Z,11.00
2023-03-30T10:47:49.393Z,11.00
2023-03-30T10:50:28.409Z,11.00
2023-03-30T10:53:07.730Z,11.00
2023-03-30T10:55:44.432Z,11.00
2023-03-30T10:58:27.564Z,11.10
2023-03-30T11:01:04.306Z,11.10
2023-03-30T11:03:33.994Z,11.10
2023-03-30T11:06:08.341Z,11.10
2023-03-30T11:08:43.858Z,11.20
2023-03-30T11:11:19.081Z,11.20
2023-03-30T11:13:51.047Z,11.20
2023-03-30T11:16:22.959Z,11.30
2023-03-30T11:18:57.631Z,11.30
2023-03-30T11:21:31.452Z,11.30
2023-03-30T11:24:05.424Z,11.40
2023-03-30T11:26:38.577Z,11.50
2023-03-30T11:29:25.664Z,11.50
2023-03-30T11:32:01.688Z,11.70
2023-03-30T11:34:36.057Z,11.80
2023-03-30T11:37:12.287Z,11.90
2023-03-30T11:39:49.016Z,12.00
2023-03-30T11:42:23.729Z,12.10
2023-03-30T11:44:52.698Z,12.20
2023-03-30T11:47:45.772Z,12.40
2023-03-30T11:50:33.090Z,12.60
2023-03-30T11:53:18.201Z,12.80
2023-03-30T11:56:07.888Z,13.00
2023-03-30T11:58:37.942Z,13.20
2023-03-30T12:01:22.471Z,13.30
2023-03-30T12:03:54.624Z,13.40
2023-03-30T12:06:31.534Z,13.60
2023-03-30T12:09:14.464Z,14.00
2023-03-30T12:11:48.762Z,14.40
2023-03-30T12:14:40.763Z,14.70
2023-03-30T12:17:25.530Z,14.90
2023-03-30T12:19:58.176Z,15.00
2023-03-30T12:22:32.877Z,15.00
2023-03-30T12:25:08.461Z,15.10
2023-03-30T12:27:52.446Z,15.30
2023-03-30T12:30:26.933Z,15.50
2023-03-30T12:33:00.428Z,15.50
2023-03-30T12:35:54.584Z,15.60
2023-03-30T12:38:25.637Z,15.60
2023-03-30T12:41:14.134Z,15.30
2023-03-30T12:44:09.990Z,15.20
2023-03-30T12:46:43.203Z,15.10
2023-03-30T12:49:21.500Z,14.90
2023-03-30T12:52:00.268Z,14.80
2023-03-30T12:55:04.158Z,14.50
2023-03-30T12:57:40.926Z,14.40
2023-03-30T13:00:51.788Z,14.30
2023-03-30T13:03:31.460Z,14.20
2023-03-30T13:06:02.251Z,14.10
2023-03-30T13:08:34.120Z,14.10
2023-03-30T13:11:13.399Z,14.10
2023-03-30T13:13:56.582Z,14.20
2023-03-30T13:16:49.708Z,14.30
2023-03-30T13:19:27.685Z,14.40
2023-03-30T13:22:18.488Z,14.40
2023-03-30T13:24:53.070Z,14.50
2023-03-30T13:27:29.551Z,14.90
2023-03-30T13:30:00.275Z,15.10
2023-03-30T13:32:43.184Z,15.20
2023-03-30T13:35:51.298Z,15.10
2023-03-30T13:38:38.469Z,15.20
2023-03-30T13:41:17.150Z,15.20
2023-03-30T13:43:57.331Z,15.20
2023-03-30T13:46:31.826Z,15.20
2023-03-30T13:49:14.408Z,15.40
2023-03-30T13:51:43.268Z,15.40
2023-03-30T13:54:16.030Z,15.40
2023-03-30T13:56:48.371Z,15.50
2023-03-30T13:59:20.523Z,15.50
2023-03-30T14:01:53.337Z,15.40
2023-03-30T14:04:22.803Z,15.20
2023-03-30T14:06:54.305Z,15.10
2023-03-30T14:09:24.203Z,15.20
2023-03-30T14:11:54.123Z,15.20
2023-03-30T14:14:27.876Z,15.30
2023-03-30T14:16:57.357Z,15.30
2023-03-30T14:19:29.565Z,15.40
2023-03-30T14:22:01.964Z,15.50
2023-03-30T14:24:32.247Z,15.60
2023-03-30T14:27:04.125Z,15.70
2023-03-30T14:29:32.322Z,15.90
2023-03-30T14:32:08.863Z,15.90
2023-03-30T14:34:39.248Z,15.70
2023-03-30T14:37:09.217Z,15.80
2023-03-30T14:39:43.006Z,15.70
2023-03-30T14:42:17.649Z,15.80
2023-03-30T14:44:47.276Z,15.80
2023-03-30T14:47:16.324Z,15.80
2023-03-30T14:49:47.518Z,15.60
2023-03-30T14:52:19.764Z,15.60
2023-03-30T14:55:02.370Z,15.50
2023-03-30T14:57:36.754Z,15.20
2023-03-30T15:00:20.933Z,15.00
2023-03-30T15:02:52.140Z,14.90
2023-03-30T15:05:23.330Z,14.90
2023-03-30T15:07:52.789Z,14.80
2023-03-30T15:10:24.024Z,14.70
2023-03-30T15:12:53.246Z,14.90
2023-03-30T15:15:26.747Z,15.00
2023-03-30T15:17:56.124Z,15.10
2023-03-30T15:20:27.903Z,15.10
2023-03-30T15:22:56.525Z,15.00
2023-03-30T15:25:30.838Z,14.90
2023-03-30T15:28:04.628Z,14.60
2023-03-30T15:30:37.890Z,14.20
2023-03-30T15:33:33.023Z,13.60
2023-03-30T15:40:23.810Z,12.50
2023-03-30T15:42:51.807Z,11.70
2023-03-30T15:45:19.884Z,11.20
2023-03-30T15:47:47.979Z,10.90
2023-03-30T15:50:17.796Z,10.60
2023-03-30T15:52:47.364Z,10.40
2023-03-30T15:55:20.365Z,10.20
2023-03-30T15:57:52.390Z,10.00
2023-03-30T16:00:22.989Z,9.90
2023-03-30T16:02:57.642Z,9.80
2023-03-30T16:05:28.401Z,9.70
2023-03-30T16:07:58.243Z,9.70
2023-03-30T16:10:28.617Z,9.60
2023-03-30T16:12:58.340Z,9.60
2023-03-30T16:15:29.349Z,9.50
2023-03-30T16:17:57.473Z,9.60
2023-03-30T16:20:28.078Z,9.60
2023-03-30T16:22:57.414Z,9.60
2023-03-30T16:25:41.771Z,9.60
2023-03-30T16:28:16.607Z,9.60
2023-03-30T16:30:47.536Z,9.50
2023-03-30T16:33:15.604Z,9.50
2023-03-30T16:35:43.669Z,9.40
2023-03-30T16:38:16.569Z,9.40
2023-03-30T16:40:46.448Z,9.40
2023-03-30T16:43:14.569Z,9.40
2023-03-30T16:45:42.669Z,9.40
2023-03-30T16:48:13.369Z,9.40
2023-03-30T16:50:43.047Z,9.40
2023-03-30T16:53:13.187Z,9.40
2023-03-30T16:55:42.124Z,9.40
2023-03-30T16:58:14.512Z,9.40
2023-03-30T17:00:45.555Z,9.40
2023-03-30T17:03:14.094Z,9.40
2023-03-30T17:05:45.732Z,9.30
2023-03-30T17:08:21.394Z,9.40
2023-03-30T17:10:49.351Z,9.40
2023-03-30T17:13:21.501Z,9.40
2023-03-30T17:15:49.454Z,9.40
2023-03-30T17:18:20.057Z,9.40
2023-03-30T17:20:51.113Z,9.40
2023-03-30T17:23:21.033Z,9.40
2023-03-30T17:25:49.843Z,9.50
2023-03-30T17:28:22.362Z,9.50
2023-03-30T17:30:51.915Z,9.60
2023-03-30T17:33:20.179Z,9.60
2023-03-30T17:35:52.336Z,9.60
2023-03-30T17:38:22.003Z,9.70
2023-03-30T17:40:50.830Z,9.70
2023-03-30T17:43:18.987Z,9.60
2023-03-30T17:45:47.325Z,9.60
2023-03-30T17:48:17.512Z,9.60
2023-03-30T17:50:47.861Z,9.50
2023-03-30T17:53:16.890Z,9.50
2023-03-30T17:55:47.650Z,9.40
2023-03-30T17:58:18.738Z,9.30
2023-03-30T18:00:47.971Z,9.30
2023-03-30T18:03:18.183Z,9.20
2023-03-30T18:05:46.774Z,9.20
2023-03-30T18:08:17.640Z,9.10
2023-03-30T18:10:48.820Z,9.00
2023-03-30T18:13:17.670Z,9.00
2023-03-30T18:15:49.178Z,8.90
2023-03-30T20:05:52.919Z,8.40
2023-03-30T20:08:24.851Z,8.30
2023-03-30T20:10:55.898Z,8.30
2023-03-30T20:13:29.446Z,8.30
2023-03-30T20:16:03.194Z,8.30
2023-03-30T20:18:33.230Z,8.30
2023-03-30T20:21:08.777Z,8.30
2023-03-30T20:23:38.022Z,8.30
2023-03-30T20:26:07.030Z,8.30
2023-03-30T20:28:38.151Z,8.30
2023-03-30T20:31:12.676Z,8.40
2023-03-30T20:33:43.809Z,8.30
2023-03-30T20:36:18.236Z,8.40
2023-03-30T20:38:54.429Z,8.40
2023-03-30T20:41:23.408Z,8.40
2023-03-30T20:43:57.297Z,8.40
2023-03-30T20:46:36.458Z,8.40
2023-03-30T20:49:06.067Z,8.40
2023-03-30T20:51:39.945Z,8.40
2023-03-30T20:54:10.518Z,8.40
2023-03-30T20:56:39.728Z,8.40
2023-03-30T20:59:14.248Z,8.50
2023-03-30T21:01:46.167Z,8.50
2023-03-30T21:04:19.170Z,8.50
2023-03-30T21:06:49.762Z,8.50
2023-03-30T21:09:42.710Z,8.60
2023-03-30T21:16:55.518Z,8.70
2023-03-30T21:19:38.397Z,8.70
2023-03-30T21:22:11.744Z,8.70
2023-03-30T21:25:33.626Z,8.80
2023-03-30T21:28:12.398Z,8.90
2023-03-30T21:30:53.093Z,9.00
2023-03-30T21:33:22.743Z,9.00
2023-03-30T21:35:52.527Z,9.00
2023-03-30T21:38:24.610Z,9.00
2023-03-30T21:40:58.214Z,9.10
2023-03-30T21:43:28.962Z,9.10
2023-03-30T21:46:00.032Z,9.10
2023-03-30T21:48:32.534Z,9.10
2023-03-30T21:51:03.552Z,9.10
2023-03-30T21:54:27.720Z,9.10
2023-03-30T21:57:24.131Z,9.10
2023-03-30T21:59:57.150Z,9.10
2023-03-30T22:03:04.091Z,9.10
2023-03-30T22:05:32.670Z,9.10
2023-03-30T22:08:09.687Z,9.10
2023-03-30T22:11:15.159Z,9.00
2023-03-30T22:14:06.759Z,9.00
2023-03-30T22:16:44.389Z,9.00
2023-03-30T22:19:12.432Z,9.00
2023-03-30T22:21:40.353Z,9.00
2023-03-30T22:24:09.108Z,9.00
2023-03-30T22:26:37.270Z,9.00
2023-03-30T22:29:06.606Z,9.00
2023-03-30T22:31:34.887Z,9.00
2023-03-30T22:34:02.987Z,9.00
2023-03-30T22:36:32.151Z,9.00
2023-03-30T22:39:01.884Z,9.00
2023-03-30T22:41:30.085Z,9.00
2023-03-30T22:44:00.657Z,9.00
2023-03-30T22:46:30.137Z,9.00
2023-03-30T22:48:58.333Z,9.00
2023-03-30T22:51:27.116Z,9.00
2023-03-30T22:53:57.779Z,8.90
2023-03-30T22:56:25.866Z,9.00
2023-03-30T22:58:53.866Z,8.90
2023-03-30T23:01:21.867Z,8.90
2023-03-30T23:03:52.979Z,9.00
2023-03-30T23:06:21.503Z,9.00
2023-03-30T23:08:49.470Z,9.00
2023-03-30T23:11:21.413Z,9.00
2023-03-30T23:13:49.979Z,9.00
2023-03-30T23:16:18.000Z,9.00
2023-03-30T23:18:46.117Z,9.00
2023-03-30T23:21:15.403Z,9.00
2023-03-30T23:23:43.662Z,9.00
2023-03-30T23:26:12.463Z,9.00
2023-03-30T23:28:43.304Z,9.00
2023-03-30T23:31:12.758Z,8.90
2023-03-30T23:33:41.470Z,9.00
2023-03-30T23:36:10.373Z,9.00
2023-03-30T23:38:40.463Z,9.00
2023-03-30T23:41:08.440Z,9.00
2023-03-30T23:43:36.505Z,9.00
2023-03-30T23:46:04.945Z,9.00
2023-03-30T23:48:33.635Z,9.00
2023-03-30T23:51:01.685Z,9.00
2023-03-30T23:53:29.961Z,9.00
2023-03-30T23:55:59.721Z,9.00
2023-03-30T23:58:27.828Z,9.10
